Time;durP1;ratioP1;P1;durP2;ratioP2;P2;SDS_P1;SDS_P2;PMS_P1;PMS_P2;Temp;Humidity;BMP_temperature;BMP_pressure;BME280_temperature;BME280_humidity;BME280_pressure;Samples;Min_cycle;Max_cycle;Signal;HPM_P1;HPM_P2
2022/03/07 00:01:26;;;;;;;14.90;13.30;;;;;;;;;;10269330;28;20128;-55
2022/03/07 00:06:28;;;;;;;13.23;11.07;;;;;;;;;;10269056;28;20068;-53
2022/03/07 00:11:30;;;;;;;11.68;10.48;;;;;;;;;;10270963;28;20061;-55
2022/03/07 00:16:30;;;;;;;10.27;8.48;;;;;;;;;;10273341;28;20404;-55
2022/03/07 00:21:32;;;;;;;12.55;11.10;;;;;;;;;;10273235;28;20049;-56
2022/03/07 00:26:34;;;;;;;9.98;8.98;;;;;;;;;;10268516;28;20541;-55
2022/03/07 00:31:34;;;;;;;19.52;15.25;;;;;;;;;;10266578;28;20451;-56
2022/03/07 00:36:36;;;;;;;16.08;13.73;;;;;;;;;;10266447;28;20053;-56
2022/03/07 00:41:38;;;;;;;13.25;11.45;;;;;;;;;;10265250;28;20510;-55
2022/03/07 00:46:38;;;;;;;11.43;9.45;;;;;;;;;;10267267;28;20087;-56
2022/03/07 00:51:37;;;;;;;9.60;8.60;;;;;;;;;;10277473;28;20774;-56
2022/03/07 00:56:35;;;;;;;11.50;9.27;;;;;;;;;;10275463;28;20052;-56
2022/03/07 01:01:35;;;;;;;10.35;9.35;;;;;;;;;;10272812;28;20056;-56
2022/03/07 01:06:34;;;;;;;11.38;8.98;;;;;;;;;;10285443;28;20080;-56
2022/03/07 01:11:32;;;;;;;10.38;9.00;;;;;;;;;;10283263;28;20418;-55
2022/03/07 01:16:30;;;;;;;12.20;9.77;;;;;;;;;;10273574;28;20076;-54
2022/03/07 01:21:30;;;;;;;11.77;10.57;;;;;;;;;;10274105;28;20072;-55
2022/03/07 01:26:28;;;;;;;11.43;10.23;;;;;;;;;;10274637;28;20418;-55
2022/03/07 01:31:27;;;;;;;10.68;9.57;;;;;;;;;;10272753;28;20569;-55
2022/03/07 01:36:25;;;;;;;11.68;10.27;;;;;;;;;;10274245;28;20057;-55
2022/03/07 01:41:25;;;;;;;10.73;9.50;;;;;;;;;;10275088;28;20053;-57
2022/03/07 01:46:23;;;;;;;10.05;8.57;;;;;;;;;;10267918;28;20072;-56
2022/03/07 01:51:21;;;;;;;10.95;9.57;;;;;;;;;;10273753;28;20148;-55
2022/03/07 01:56:21;;;;;;;11.90;10.10;;;;;;;;;;10268770;28;20048;-56
2022/03/07 02:01:21;;;;;;;16.33;12.30;;;;;;;;;;10285351;28;20060;-56
2022/03/07 02:06:19;;;;;;;13.57;11.20;;;;;;;;;;10272607;28;20072;-56
2022/03/07 02:11:20;;;;;;;11.75;10.10;;;;;;;;;;10273205;28;20087;-55
2022/03/07 02:16:19;;;;;;;13.35;8.20;;;;;;;;;;10272568;28;20037;-56
2022/03/07 02:21:19;;;;;;;11.13;8.50;;;;;;;;;;10270266;28;20135;-56
2022/03/07 02:26:57;;;;;;;10.27;8.18;;;;;;;;;;10294072;28;20538;-56
2022/03/07 02:31:57;;;;;;;11.55;7.72;;;;;;;;;;10271730;28;20053;-56
2022/03/07 02:36:59;;;;;;;20.95;13.05;;;;;;;;;;10285942;28;20076;-55
2022/03/07 02:42:07;;;;;;;15.27;10.25;;;;;;;;;;10283340;28;20053;-55
2022/03/07 02:47:06;;;;;;;9.50;8.00;;;;;;;;;;10286314;28;20079;-54
2022/03/07 02:52:04;;;;;;;11.77;9.35;;;;;;;;;;10267720;28;20057;-54
2022/03/07 02:57:03;;;;;;;10.13;8.77;;;;;;;;;;10268140;28;20080;-57
2022/03/07 03:02:03;;;;;;;9.15;7.32;;;;;;;;;;10283719;28;20081;-56
2022/03/07 03:07:01;;;;;;;12.45;10.18;;;;;;;;;;10270239;28;20079;-55
2022/03/07 03:12:00;;;;;;;11.05;9.70;;;;;;;;;;10274124;28;20083;-57
2022/03/07 03:16:58;;;;;;;11.07;9.15;;;;;;;;;;10275279;28;20069;-55
2022/03/07 03:21:58;;;;;;;11.93;10.07;;;;;;;;;;10274711;28;20084;-55
2022/03/07 03:26:56;;;;;;;14.50;11.45;;;;;;;;;;10269496;28;20069;-57
2022/03/07 03:31:55;;;;;;;17.05;12.05;;;;;;;;;;10269678;28;20077;-56
2022/03/07 03:36:53;;;;;;;26.95;16.77;;;;;;;;;;10285875;28;20450;-56
2022/03/07 03:41:52;;;;;;;21.77;15.80;;;;;;;;;;10290508;28;20049;-55
2022/03/07 03:46:51;;;;;;;17.73;13.50;;;;;;;;;;10267863;28;20457;-54
2022/03/07 03:51:49;;;;;;;12.57;11.20;;;;;;;;;;10268478;28;20072;-55
2022/03/07 03:56:47;;;;;;;12.55;11.07;;;;;;;;;;10269010;28;20475;-56
2022/03/07 04:01:47;;;;;;;12.52;10.30;;;;;;;;;;10268690;28;20069;-56
2022/03/07 04:06:45;;;;;;;13.20;10.55;;;;;;;;;;10268341;28;20068;-56
2022/03/07 04:11:44;;;;;;;13.43;11.30;;;;;;;;;;10268603;28;20463;-55
2022/03/07 04:16:42;;;;;;;28.63;21.20;;;;;;;;;;10271799;28;20053;-57
2022/03/07 04:21:42;;;;;;;17.05;12.98;;;;;;;;;;10280356;28;20445;-53
2022/03/07 04:26:41;;;;;;;15.57;12.00;;;;;;;;;;10281704;28;20451;-55
2022/03/07 04:31:40;;;;;;;14.85;11.48;;;;;;;;;;10281732;28;20069;-55
2022/03/07 04:36:39;;;;;;;22.33;16.13;;;;;;;;;;10282616;28;20064;-54
2022/03/07 04:41:39;;;;;;;24.67;19.08;;;;;;;;;;10279639;28;20037;-56
2022/03/07 04:46:38;;;;;;;14.30;11.70;;;;;;;;;;10280109;28;20465;-55
2022/03/07 04:51:36;;;;;;;17.40;14.45;;;;;;;;;;10280138;28;20084;-55
2022/03/07 04:56:35;;;;;;;41.97;29.08;;;;;;;;;;10277142;28;20087;-55
2022/03/07 05:01:34;;;;;;;21.15;15.57;;;;;;;;;;10280720;28;20465;-56
2022/03/07 05:06:34;;;;;;;17.30;12.32;;;;;;;;;;10278726;28;20067;-56
2022/03/07 05:11:32;;;;;;;21.48;16.10;;;;;;;;;;10275872;28;20073;-54
2022/03/07 05:16:30;;;;;;;17.15;13.43;;;;;;;;;;10281512;28;20418;-55
2022/03/07 05:21:30;;;;;;;20.42;14.50;;;;;;;;;;10280080;28;20084;-56
2022/03/07 05:26:28;;;;;;;16.15;12.43;;;;;;;;;;10281479;28;20073;-56
2022/03/07 05:31:26;;;;;;;20.52;15.45;;;;;;;;;;10274882;28;20100;-55
2022/03/07 05:36:25;;;;;;;21.38;16.58;;;;;;;;;;10284678;28;20068;-55
2022/03/07 05:41:24;;;;;;;21.52;15.00;;;;;;;;;;10271535;28;20543;-55
2022/03/07 05:46:23;;;;;;;23.67;16.52;;;;;;;;;;10269410;28;20067;-54
2022/03/07 05:51:23;;;;;;;21.83;16.25;;;;;;;;;;10273841;28;20088;-56
2022/03/07 05:56:22;;;;;;;29.60;17.67;;;;;;;;;;10269751;28;20080;-57
2022/03/07 06:01:22;;;;;;;20.00;15.63;;;;;;;;;;10262382;28;20073;-54
2022/03/07 06:06:20;;;;;;;18.17;14.30;;;;;;;;;;10263809;28;20080;-56
2022/03/07 06:11:19;;;;;;;17.75;12.63;;;;;;;;;;10272011;28;20068;-55
2022/03/07 06:16:17;;;;;;;15.52;12.50;;;;;;;;;;10267064;28;20241;-56
2022/03/07 06:21:17;;;;;;;23.52;18.58;;;;;;;;;;10265141;28;20069;-55
2022/03/07 06:26:15;;;;;;;27.85;23.02;;;;;;;;;;10263654;28;20536;-54
2022/03/07 06:31:13;;;;;;;32.15;24.08;;;;;;;;;;10263207;28;20474;-56
2022/03/07 06:36:11;;;;;;;43.83;32.60;;;;;;;;;;10270281;28;20485;-51
2022/03/07 06:41:11;;;;;;;28.13;24.52;;;;;;;;;;10264487;28;20041;-55
2022/03/07 06:46:09;;;;;;;21.42;17.23;;;;;;;;;;10265610;28;20079;-55
2022/03/07 06:51:08;;;;;;;24.90;18.70;;;;;;;;;;10263518;28;20077;-54
2022/03/07 06:56:06;;;;;;;20.77;17.50;;;;;;;;;;10264439;28;20091;-53
2022/03/07 07:01:06;;;;;;;24.30;18.30;;;;;;;;;;10277266;28;20070;-51
2022/03/07 07:06:04;;;;;;;21.42;15.45;;;;;;;;;;10263798;28;20087;-55
2022/03/07 07:11:03;;;;;;;73.38;46.33;;;;;;;;;;10266572;28;20091;-56
2022/03/07 07:16:01;;;;;;;86.85;52.70;;;;;;;;;;10266257;28;20487;-55
2022/03/07 07:21:01;;;;;;;31.58;20.98;;;;;;;;;;10268520;28;20325;-56
2022/03/07 07:25:59;;;;;;;34.20;24.70;;;;;;;;;;10269294;28;20049;-55
2022/03/07 07:30:57;;;;;;;35.40;22.30;;;;;;;;;;10270158;28;20076;-57
2022/03/07 07:35:56;;;;;;;28.08;21.13;;;;;;;;;;10269832;28;20506;-55
2022/03/07 07:40:55;;;;;;;23.02;18.35;;;;;;;;;;10269265;28;20076;-56
2022/03/07 07:45:54;;;;;;;24.13;18.80;;;;;;;;;;10269053;28;20076;-55
2022/03/07 07:50:52;;;;;;;20.45;16.60;;;;;;;;;;10268285;28;20076;-57
2022/03/07 07:55:50;;;;;;;20.15;15.35;;;;;;;;;;10268400;28;20498;-55
2022/03/07 08:00:50;;;;;;;17.75;15.57;;;;;;;;;;10268567;28;20083;-56
2022/03/07 08:05:48;;;;;;;18.10;15.38;;;;;;;;;;10268447;28;20072;-55
2022/03/07 08:10:47;;;;;;;20.23;17.15;;;;;;;;;;10268206;28;20084;-57
2022/03/07 08:15:45;;;;;;;32.13;24.80;;;;;;;;;;10268409;28;20088;-53
2022/03/07 08:20:45;;;;;;;28.33;21.63;;;;;;;;;;10267257;28;20112;-55
2022/03/07 08:25:43;;;;;;;22.25;16.70;;;;;;;;;;10273239;28;20415;-54
2022/03/07 08:30:41;;;;;;;23.50;16.25;;;;;;;;;;10273219;28;20090;-53
2022/03/07 08:35:40;;;;;;;38.40;26.27;;;;;;;;;;10272606;28;20045;-55
2022/03/07 08:40:39;;;;;;;51.90;33.00;;;;;;;;;;10268064;28;20099;-55
2022/03/07 08:45:42;;;;;;;49.95;26.25;;;;;;;;;;10266981;28;20081;-55
2022/03/07 08:50:54;;;;;;;41.58;26.42;;;;;;;;;;10265550;28;20096;-53
2022/03/07 08:55:54;;;;;;;22.92;16.98;;;;;;;;;;10267874;28;20065;-59
2022/03/07 09:01:12;;;;;;;72.38;39.22;;;;;;;;;;10267108;28;20287;-55
2022/03/07 09:06:10;;;;;;;26.25;17.85;;;;;;;;;;10274040;28;20585;-55
2022/03/07 09:11:10;;;;;;;75.90;44.80;;;;;;;;;;10276108;28;20087;-54
2022/03/07 09:16:09;;;;;;;30.60;23.73;;;;;;;;;;10275384;28;20084;-55
2022/03/07 09:21:08;;;;;;;22.30;16.45;;;;;;;;;;10275439;28;20069;-54
2022/03/07 09:26:06;;;;;;;103.75;60.25;;;;;;;;;;10272479;28;20077;-56
2022/03/07 09:31:06;;;;;;;26.17;17.42;;;;;;;;;;10278816;28;20111;-54
2022/03/07 09:36:05;;;;;;;39.13;27.88;;;;;;;;;;10278364;28;20064;-56
2022/03/07 09:41:07;;;;;;;41.60;26.40;;;;;;;;;;10275351;28;20540;-56
2022/03/07 09:46:07;;;;;;;23.55;19.60;;;;;;;;;;10278496;28;20477;-56
2022/03/07 09:51:05;;;;;;;92.25;56.22;;;;;;;;;;10276706;28;20092;-55
2022/03/07 09:56:05;;;;;;;46.00;34.45;;;;;;;;;;10277419;28;20077;-54
2022/03/07 10:01:13;;;;;;;41.38;29.02;;;;;;;;;;10273721;28;20425;-52
2022/03/07 10:06:18;;;;;;;23.73;17.58;;;;;;;;;;10275140;28;20056;-55
2022/03/07 10:11:16;;;;;;;64.28;40.08;;;;;;;;;;10278092;28;20107;-57
2022/03/07 10:16:16;;;;;;;26.20;21.33;;;;;;;;;;10275035;28;20077;-56
2022/03/07 10:21:21;;;;;;;55.90;38.55;;;;;;;;;;10272529;28;20074;-56
2022/03/07 10:26:19;;;;;;;39.93;31.60;;;;;;;;;;10273074;28;20096;-56
2022/03/07 10:31:19;;;;;;;32.88;22.83;;;;;;;;;;10272022;28;20088;-55
2022/03/07 10:36:17;;;;;;;35.83;24.98;;;;;;;;;;10272144;28;20402;-55
2022/03/07 10:41:16;;;;;;;56.78;37.50;;;;;;;;;;10272131;28;20099;-54
2022/03/07 10:46:24;;;;;;;76.45;46.15;;;;;;;;;;10271656;28;20422;-56
2022/03/07 10:51:25;;;;;;;54.15;37.80;;;;;;;;;;10272093;28;20192;-55
2022/03/07 10:56:24;;;;;;;36.50;24.75;;;;;;;;;;10270099;28;20049;-57
2022/03/07 11:01:29;;;;;;;33.25;23.20;;;;;;;;;;10281774;28;20064;-55
2022/03/07 11:06:29;;;;;;;43.58;29.92;;;;;;;;;;10270914;28;20085;-55
2022/03/07 11:11:28;;;;;;;35.42;25.70;;;;;;;;;;10270966;28;20119;-55
2022/03/07 11:16:30;;;;;;;64.93;43.60;;;;;;;;;;10270793;28;20481;-55
2022/03/07 11:21:30;;;;;;;81.55;46.10;;;;;;;;;;10273275;28;20076;-55
2022/03/07 11:26:29;;;;;;;95.40;57.65;;;;;;;;;;10267633;28;20092;-51
2022/03/07 11:31:28;;;;;;;69.30;46.95;;;;;;;;;;10272116;28;20083;-54
2022/03/07 11:36:30;;;;;;;67.05;45.83;;;;;;;;;;10264841;28;20116;-51
2022/03/07 11:41:30;;;;;;;49.45;36.95;;;;;;;;;;10270183;28;20071;-53
2022/03/07 11:46:30;;;;;;;34.45;24.13;;;;;;;;;;10272180;28;20509;-54
2022/03/07 11:51:29;;;;;;;44.50;32.58;;;;;;;;;;10267012;28;20095;-50
2022/03/07 11:56:28;;;;;;;59.35;42.83;;;;;;;;;;10269010;28;20500;-56
2022/03/07 12:01:30;;;;;;;45.28;34.00;;;;;;;;;;10269420;28;20125;-53
2022/03/07 12:06:29;;;;;;;37.92;27.60;;;;;;;;;;10269377;28;20462;-55
2022/03/07 12:11:28;;;;;;;39.85;31.20;;;;;;;;;;10269171;28;20079;-53
2022/03/07 12:16:28;;;;;;;48.88;34.65;;;;;;;;;;10270492;28;20068;-56
2022/03/07 12:21:27;;;;;;;54.42;45.15;;;;;;;;;;10273375;28;20068;-54
2022/03/07 12:26:26;;;;;;;37.03;28.92;;;;;;;;;;10271518;28;20045;-53
2022/03/07 12:31:24;;;;;;;32.80;26.00;;;;;;;;;;10270967;28;20494;-57
2022/03/07 12:36:25;;;;;;;41.80;32.60;;;;;;;;;;10268551;28;20068;-54
2022/03/07 12:41:29;;;;;;;45.00;33.53;;;;;;;;;;10273530;28;20068;-54
2022/03/07 12:46:27;;;;;;;32.33;24.38;;;;;;;;;;10276222;28;21169;-54
2022/03/07 12:51:27;;;;;;;22.58;18.48;;;;;;;;;;10276499;28;20550;-55
2022/03/07 12:56:27;;;;;;;30.83;21.80;;;;;;;;;;10276646;28;20521;-56
2022/03/07 13:01:26;;;;;;;53.85;33.65;;;;;;;;;;10275939;28;20477;-57
2022/03/07 13:06:25;;;;;;;36.67;27.88;;;;;;;;;;10275962;28;20044;-55
2022/03/07 13:11:32;;;;;;;29.88;23.35;;;;;;;;;;10275870;28;20091;-54
2022/03/07 13:16:31;;;;;;;28.40;20.75;;;;;;;;;;10275781;28;20077;-52
2022/03/07 13:21:32;;;;;;;30.00;19.73;;;;;;;;;;10275537;28;20494;-55
2022/03/07 13:26:32;;;;;;;34.42;21.95;;;;;;;;;;10275291;28;20073;-55
2022/03/07 13:31:40;;;;;;;26.75;19.60;;;;;;;;;;10275081;28;20068;-54
2022/03/07 13:36:39;;;;;;;16.90;12.93;;;;;;;;;;10272937;28;20075;-54
2022/03/07 13:41:48;;;;;;;30.70;23.25;;;;;;;;;;10274556;28;20065;-55
2022/03/07 13:46:59;;;;;;;49.45;33.97;;;;;;;;;;10273427;28;20089;-54
2022/03/07 13:51:58;;;;;;;26.17;19.63;;;;;;;;;;10272328;28;20545;-55
2022/03/07 13:57:06;;;;;;;38.67;25.27;;;;;;;;;;10273815;28;20081;-56
2022/03/07 14:02:14;;;;;;;28.80;18.98;;;;;;;;;;10273193;28;20125;-55
2022/03/07 14:07:20;;;;;;;25.35;19.17;;;;;;;;;;10287117;28;20065;-55
2022/03/07 14:12:33;;;;;;;41.53;34.42;;;;;;;;;;10275763;28;20072;-56
2022/03/07 14:17:56;;;;;;;14.68;12.55;;;;;;;;;;10271389;28;20076;-53
2022/03/07 14:22:54;;;;;;;18.60;14.90;;;;;;;;;;10271624;28;20084;-56
2022/03/07 14:27:54;;;;;;;20.52;15.88;;;;;;;;;;10270741;28;20544;-55
2022/03/07 14:32:52;;;;;;;27.02;18.95;;;;;;;;;;10271036;28;20341;-53
2022/03/07 14:37:51;;;;;;;38.10;25.77;;;;;;;;;;10270747;28;20081;-55
2022/03/07 14:42:49;;;;;;;61.60;39.72;;;;;;;;;;10271778;28;20459;-55
2022/03/07 14:47:51;;;;;;;85.40;50.63;;;;;;;;;;10279815;28;20088;-54
2022/03/07 14:52:49;;;;;;;48.28;31.17;;;;;;;;;;10269781;28;20089;-55
2022/03/07 14:57:48;;;;;;;45.53;28.08;;;;;;;;;;10267346;28;20072;-53
2022/03/07 15:02:46;;;;;;;74.72;42.30;;;;;;;;;;10283901;28;20392;-53
2022/03/07 15:07:46;;;;;;;109.40;56.15;;;;;;;;;;10270001;28;20541;-56
2022/03/07 15:12:44;;;;;;;101.35;60.63;;;;;;;;;;10259912;28;20076;-56
2022/03/07 15:17:43;;;;;;;121.43;66.38;;;;;;;;;;10283156;28;20065;-51
2022/03/07 15:22:41;;;;;;;72.65;46.72;;;;;;;;;;10262402;28;20085;-55
2022/03/07 15:27:40;;;;;;;59.90;38.78;;;;;;;;;;10269562;28;20072;-57
2022/03/07 15:32:40;;;;;;;19.40;14.98;;;;;;;;;;10269307;28;20073;-51
2022/03/07 15:37:38;;;;;;;42.20;26.75;;;;;;;;;;10269655;28;20069;-52
2022/03/07 15:42:38;;;;;;;54.05;33.05;;;;;;;;;;10268807;28;20494;-54
2022/03/07 15:47:38;;;;;;;107.53;58.22;;;;;;;;;;10282462;28;20084;-52
2022/03/07 15:52:36;;;;;;;541.88;338.00;;;;;;;;;;10283079;28;20553;-52
2022/03/07 15:57:35;;;;;;;148.00;86.45;;;;;;;;;;10282644;28;20077;-55
2022/03/07 16:02:34;;;;;;;114.28;71.35;;;;;;;;;;10283492;28;20081;-54
2022/03/07 16:07:39;;;;;;;67.03;43.88;;;;;;;;;;10268897;28;20144;-50
2022/03/07 16:12:41;;;;;;;63.08;38.15;;;;;;;;;;10267133;28;20075;-55
2022/03/07 16:17:40;;;;;;;47.63;33.70;;;;;;;;;;10268650;28;20462;-54
2022/03/07 16:22:39;;;;;;;52.13;35.33;;;;;;;;;;10268158;28;20462;-55
2022/03/07 16:27:37;;;;;;;36.33;28.52;;;;;;;;;;10281163;28;20069;-55
2022/03/07 16:32:36;;;;;;;40.58;27.52;;;;;;;;;;10275481;28;20061;-54
2022/03/07 16:37:35;;;;;;;34.83;26.40;;;;;;;;;;10271982;28;20536;-54
2022/03/07 16:42:35;;;;;;;35.47;25.38;;;;;;;;;;10272168;28;20446;-54
2022/03/07 16:47:35;;;;;;;40.38;29.02;;;;;;;;;;10265014;28;20077;-56
2022/03/07 16:52:34;;;;;;;62.20;42.95;;;;;;;;;;10281145;28;20091;-54
2022/03/07 16:57:32;;;;;;;37.80;27.98;;;;;;;;;;10281600;28;20073;-56
2022/03/07 17:02:32;;;;;;;37.25;28.15;;;;;;;;;;10267418;28;20498;-55
2022/03/07 17:07:31;;;;;;;51.03;38.00;;;;;;;;;;10273924;28;20421;-54
2022/03/07 17:12:29;;;;;;;44.83;30.50;;;;;;;;;;10271285;28;20479;-55
2022/03/07 17:17:27;;;;;;;82.13;49.35;;;;;;;;;;10264834;28;20077;-54
2022/03/07 17:22:27;;;;;;;62.25;35.30;;;;;;;;;;10266631;28;20060;-55
2022/03/07 17:27:25;;;;;;;55.33;34.90;;;;;;;;;;10272971;28;20072;-56
2022/03/07 17:32:23;;;;;;;48.40;32.30;;;;;;;;;;10274543;28;20072;-57
2022/03/07 17:37:22;;;;;;;104.38;66.95;;;;;;;;;;10288043;28;20592;-55
2022/03/07 17:42:21;;;;;;;145.48;87.22;;;;;;;;;;10273413;28;20075;-54
2022/03/07 17:47:19;;;;;;;51.67;39.85;;;;;;;;;;10273984;28;20070;-53
2022/03/07 17:52:18;;;;;;;36.55;28.50;;;;;;;;;;10273027;28;20095;-54
2022/03/07 17:57:16;;;;;;;45.05;32.15;;;;;;;;;;10255150;28;20438;-53
2022/03/07 18:02:16;;;;;;;44.75;31.45;;;;;;;;;;10253393;28;20076;-53
2022/03/07 18:07:20;;;;;;;68.57;44.13;;;;;;;;;;10272573;28;20076;-52
2022/03/07 18:12:19;;;;;;;69.00;48.22;;;;;;;;;;10281697;28;20076;-55
2022/03/07 18:17:18;;;;;;;90.70;60.08;;;;;;;;;;10251320;28;20057;-55
2022/03/07 18:22:17;;;;;;;60.15;41.45;;;;;;;;;;10273771;28;20084;-54
2022/03/07 18:27:15;;;;;;;42.22;27.33;;;;;;;;;;10271191;28;20068;-53
2022/03/07 18:32:13;;;;;;;34.80;25.67;;;;;;;;;;10254741;28;20095;-54
2022/03/07 18:37:17;;;;;;;45.53;32.78;;;;;;;;;;10270705;28;20506;-53
2022/03/07 18:42:16;;;;;;;50.10;34.38;;;;;;;;;;10265771;28;20075;-57
2022/03/07 18:47:15;;;;;;;56.17;37.97;;;;;;;;;;10250492;28;20061;-55
2022/03/07 18:52:14;;;;;;;53.08;39.00;;;;;;;;;;10265450;28;20084;-55
2022/03/07 18:57:13;;;;;;;38.67;26.30;;;;;;;;;;10256502;28;20163;-55
2022/03/07 19:02:13;;;;;;;76.63;48.03;;;;;;;;;;10252648;28;20075;-54
2022/03/07 19:07:15;;;;;;;126.75;73.65;;;;;;;;;;10247458;28;20549;-53
2022/03/07 19:12:15;;;;;;;119.28;64.50;;;;;;;;;;10263069;28;20072;-50
2022/03/07 19:17:13;;;;;;;68.22;41.35;;;;;;;;;;10256164;28;20077;-55
2022/03/07 19:22:12;;;;;;;66.78;46.17;;;;;;;;;;10256132;28;20063;-52
2022/03/07 19:27:10;;;;;;;48.95;36.00;;;;;;;;;;10251402;28;20068;-53
2022/03/07 19:32:10;;;;;;;40.67;31.95;;;;;;;;;;10264195;28;20073;-52
2022/03/07 19:37:08;;;;;;;36.60;28.25;;;;;;;;;;10283305;28;20061;-52
2022/03/07 19:42:07;;;;;;;47.00;31.23;;;;;;;;;;10253672;28;20073;-52
2022/03/07 19:47:05;;;;;;;39.80;28.27;;;;;;;;;;10259449;28;20490;-51
2022/03/07 19:52:06;;;;;;;30.77;23.80;;;;;;;;;;10260313;28;20075;-53
2022/03/07 19:57:04;;;;;;;69.45;43.30;;;;;;;;;;10263172;28;20075;-52
2022/03/07 20:02:03;;;;;;;58.35;40.67;;;;;;;;;;10261450;28;20079;-50
2022/03/07 20:07:01;;;;;;;39.15;31.17;;;;;;;;;;10258975;28;20080;-54
2022/03/07 20:12:01;;;;;;;28.38;21.25;;;;;;;;;;10250358;28;20064;-52
2022/03/07 20:16:59;;;;;;;29.77;22.48;;;;;;;;;;10257287;28;20065;-54
2022/03/07 20:21:58;;;;;;;49.40;32.67;;;;;;;;;;10259383;28;20057;-51
2022/03/07 20:26:56;;;;;;;56.15;35.63;;;;;;;;;;10261352;28;20061;-52
2022/03/07 20:31:56;;;;;;;35.58;26.67;;;;;;;;;;10265328;28;20065;-52
2022/03/07 20:36:54;;;;;;;53.53;31.00;;;;;;;;;;10264014;28;20069;-52
2022/03/07 20:41:52;;;;;;;51.65;34.30;;;;;;;;;;10258642;28;20502;-54
2022/03/07 20:46:52;;;;;;;40.65;27.10;;;;;;;;;;10279826;28;20084;-55
2022/03/07 20:51:52;;;;;;;31.60;24.30;;;;;;;;;;10262083;28;20072;-54
2022/03/07 20:56:50;;;;;;;129.65;83.78;;;;;;;;;;10270763;28;20076;-54
2022/03/07 21:01:49;;;;;;;140.23;93.50;;;;;;;;;;10275966;28;20463;-55
2022/03/07 21:06:47;;;;;;;97.03;63.63;;;;;;;;;;10268497;28;20080;-54
2022/03/07 21:11:47;;;;;;;153.05;87.53;;;;;;;;;;10269318;28;20507;-55
2022/03/07 21:16:45;;;;;;;144.95;84.47;;;;;;;;;;10274812;28;20065;-55
2022/03/07 21:21:44;;;;;;;190.68;113.18;;;;;;;;;;10270344;28;20083;-54
2022/03/07 21:26:42;;;;;;;297.83;137.90;;;;;;;;;;10265614;28;20079;-54
2022/03/07 21:31:42;;;;;;;381.27;165.25;;;;;;;;;;10271099;28;20509;-54
2022/03/07 21:36:40;;;;;;;373.50;166.73;;;;;;;;;;10265583;28;20068;-53
2022/03/07 21:41:39;;;;;;;342.88;158.27;;;;;;;;;;10252628;28;20073;-52
2022/03/07 21:46:37;;;;;;;245.73;117.45;;;;;;;;;;10246678;28;20072;-53
2022/03/07 21:51:38;;;;;;;349.48;165.82;;;;;;;;;;10261637;28;20099;-54
2022/03/07 21:56:36;;;;;;;241.43;122.43;;;;;;;;;;10273029;28;20081;-54
2022/03/07 22:01:34;;;;;;;107.95;58.10;;;;;;;;;;10269272;28;20044;-52
2022/03/07 22:06:33;;;;;;;381.42;176.40;;;;;;;;;;10268354;28;20076;-51
2022/03/07 22:11:34;;;;;;;362.88;188.90;;;;;;;;;;10262372;28;20088;-53
2022/03/07 22:16:32;;;;;;;167.38;94.07;;;;;;;;;;10267892;28;20072;-53
2022/03/07 22:21:31;;;;;;;217.73;132.98;;;;;;;;;;10276618;28;20060;-54
2022/03/07 22:26:29;;;;;;;128.05;79.30;;;;;;;;;;10276847;28;20060;-50
2022/03/07 22:31:29;;;;;;;94.32;56.20;;;;;;;;;;10273203;28;20073;-52
2022/03/07 22:36:27;;;;;;;204.40;123.82;;;;;;;;;;10272712;28;21519;-55
2022/03/07 22:41:25;;;;;;;62.15;43.33;;;;;;;;;;10273463;28;20077;-56
2022/03/07 22:46:24;;;;;;;43.03;29.77;;;;;;;;;;10271338;28;20073;-52
2022/03/07 22:51:23;;;;;;;76.28;48.97;;;;;;;;;;10272058;28;20092;-56
2022/03/07 22:56:22;;;;;;;61.95;44.53;;;;;;;;;;10268990;28;20489;-55
2022/03/07 23:01:20;;;;;;;30.27;21.50;;;;;;;;;;10282348;28;20484;-54
2022/03/07 23:11:35;;;;;;;39.90;29.75;;;;;;;;;;10284101;28;20061;-55
2022/03/07 23:16:34;;;;;;;37.50;25.50;;;;;;;;;;10268308;28;20076;-55
2022/03/07 23:21:32;;;;;;;38.05;25.50;;;;;;;;;;10268926;28;20525;-51
2022/03/07 23:26:30;;;;;;;65.55;47.80;;;;;;;;;;10266574;28;20065;-54
2022/03/07 23:31:30;;;;;;;61.80;43.47;;;;;;;;;;10270691;28;20081;-53
2022/03/07 23:36:28;;;;;;;107.32;65.32;;;;;;;;;;10270397;28;20487;-54
2022/03/07 23:41:27;;;;;;;72.88;43.25;;;;;;;;;;10270283;28;20196;-54
2022/03/07 23:46:25;;;;;;;38.65;26.70;;;;;;;;;;10270258;28;20198;-54
2022/03/07 23:51:25;;;;;;;56.25;35.30;;;;;;;;;;10269539;28;20092;-55
2022/03/07 23:56:23;;;;;;;70.97;55.20;;;;;;;;;;10269876;28;20068;-54
